Corridon, Missouri
Current Conditions -  °F | °C
As of 6:35 PM on Thursday 18 Dec 2014 (Local Time) from KFAM Reporting Station
Overcast Overcast  
Wind Chill: 30°   Ceiling: 400
Heat Index: 34°   Visibility: 6mi
Dew Point: 34°   Wind: 5mph
Humidity: 100%   Direction: 20°NNE
Pressure: 30.24"   Gusts: NA
Location:  37.4443°N, 90.9972°W
Report Text: KFAM 190035Z AUTO 02004KT 6SM OVC004 01/01 A3024 RMK AO1
Loading
Personal Weather Stations






























Interactive Weather Map New forecast layout! Learn more

10-Day Weather Forecast

Advertisements
Track Severe Weather on mobile